createdAt,value
2018-12-06T00:16:19.601Z,99.99
2018-12-06T00:17:19.825Z,99.99
2018-12-06T00:19:12.962Z,99.99
2018-12-06T00:20:13.198Z,99.99
2018-12-06T00:22:17.370Z,99.99
2018-12-06T00:23:17.605Z,99.99
2018-12-06T00:25:21.827Z,99.99
2018-12-06T00:26:22.058Z,99.99
2018-12-06T00:28:26.264Z,99.99
2018-12-06T00:29:26.504Z,99.99
2018-12-06T00:31:30.677Z,99.99
2018-12-06T00:32:30.913Z,99.99
2018-12-06T00:34:35.126Z,99.99
2018-12-06T00:35:35.363Z,99.99
2018-12-06T00:37:39.549Z,99.99
2018-12-06T00:38:39.781Z,99.99
2018-12-06T00:40:44.003Z,99.99
2018-12-06T00:41:44.234Z,99.99
2018-12-06T00:43:48.437Z,99.99
2018-12-06T00:44:48.672Z,99.99
2018-12-06T00:46:52.862Z,99.99
2018-12-06T00:47:53.101Z,99.99
2018-12-06T00:49:57.310Z,99.99
2018-12-06T00:50:57.546Z,99.99
2018-12-06T00:53:01.729Z,99.99
2018-12-06T00:54:01.966Z,99.99
2018-12-06T00:56:06.166Z,99.99
2018-12-06T00:57:06.399Z,99.99
2018-12-06T00:58:59.535Z,99.99
2018-12-06T00:59:59.775Z,99.99
2018-12-06T01:02:03.966Z,99.99
2018-12-06T01:03:04.203Z,99.99
2018-12-06T01:05:08.392Z,99.99
2018-12-06T01:06:08.630Z,99.99
2018-12-06T01:08:12.816Z,99.99
2018-12-06T01:09:13.045Z,99.99
2018-12-06T01:11:17.259Z,99.99
2018-12-06T01:12:17.495Z,99.99
2018-12-06T01:14:21.722Z,99.99
2018-12-06T01:15:21.961Z,99.99
2018-12-06T01:17:26.134Z,99.99
2018-12-06T01:18:26.364Z,99.99
2018-12-06T01:20:30.578Z,99.99
2018-12-06T01:21:30.817Z,99.99
2018-12-06T01:23:35.005Z,99.99
2018-12-06T01:24:35.242Z,99.99
2018-12-06T01:26:39.455Z,99.99
2018-12-06T01:27:39.690Z,99.99
2018-12-06T01:29:43.902Z,99.99
2018-12-06T01:30:44.142Z,99.99
2018-12-06T01:32:48.329Z,99.99
2018-12-06T01:33:48.563Z,99.99
2018-12-06T01:35:52.777Z,99.99
2018-12-06T01:36:53.017Z,99.99
2018-12-06T01:38:46.128Z,99.99
2018-12-06T01:39:46.370Z,99.99
2018-12-06T01:41:50.582Z,99.99
2018-12-06T01:42:50.822Z,99.99
2018-12-06T01:44:55.037Z,99.99
2018-12-06T01:45:55.277Z,99.99
2018-12-06T01:47:59.459Z,99.99
2018-12-06T01:48:59.698Z,99.99
2018-12-06T01:51:03.951Z,99.99
2018-12-06T01:52:04.164Z,99.99
2018-12-06T01:54:08.374Z,99.99
2018-12-06T01:55:08.625Z,99.99
2018-12-06T01:57:12.809Z,99.99
2018-12-06T01:58:13.072Z,99.99
2018-12-06T02:00:17.259Z,99.99
2018-12-06T02:01:17.593Z,99.99
2018-12-06T02:03:21.682Z,99.99
2018-12-06T02:04:21.923Z,99.99
2018-12-06T02:06:26.140Z,99.99
2018-12-06T02:07:26.379Z,99.99
2018-12-06T02:09:19.520Z,99.99
2018-12-06T02:10:19.764Z,99.99
2018-12-06T02:12:23.942Z,99.99
2018-12-06T02:13:24.182Z,99.99
2018-12-06T02:15:28.383Z,99.99
2018-12-06T02:16:28.625Z,99.99
2018-12-06T02:18:32.813Z,99.99
2018-12-06T02:19:33.053Z,99.99
2018-12-06T02:21:37.265Z,99.99
2018-12-06T02:22:37.509Z,99.99
2018-12-06T02:24:41.730Z,99.99
2018-12-06T02:25:41.973Z,99.99
2018-12-06T02:27:46.168Z,99.99
2018-12-06T02:28:46.410Z,99.99
2018-12-06T02:30:50.610Z,99.99
2018-12-06T02:31:50.847Z,99.99
2018-12-06T02:33:55.022Z,99.99
2018-12-06T02:34:55.262Z,99.99
2018-12-06T02:36:59.465Z,99.99
2018-12-06T02:37:59.704Z,99.99
2018-12-06T02:40:03.880Z,99.99
2018-12-06T02:41:04.119Z,99.99
2018-12-06T02:43:08.337Z,99.99
2018-12-06T02:44:08.575Z,99.99
2018-12-06T02:46:12.779Z,99.99
2018-12-06T02:47:13.021Z,99.99
2018-12-06T02:49:06.141Z,99.99
2018-12-06T02:50:06.382Z,99.99
2018-12-06T02:52:10.597Z,99.99
2018-12-06T02:53:10.851Z,99.99
2018-12-06T02:55:15.018Z,99.99
2018-12-06T02:56:15.255Z,99.99
2018-12-06T02:58:19.455Z,99.99
2018-12-06T02:59:19.701Z,99.99
2018-12-06T03:01:23.910Z,99.99
2018-12-06T03:02:24.153Z,99.99
2018-12-06T03:04:28.337Z,99.99
2018-12-06T03:05:28.583Z,99.99
2018-12-06T03:07:32.793Z,99.99
2018-12-06T03:08:33.034Z,99.99
2018-12-06T03:10:37.223Z,99.99
2018-12-06T03:11:37.461Z,99.99
2018-12-06T03:13:41.677Z,99.99
2018-12-06T03:14:41.915Z,99.99
2018-12-06T03:16:46.125Z,99.99
2018-12-06T03:17:46.382Z,99.99
2018-12-06T03:19:50.548Z,99.99
2018-12-06T03:20:50.784Z,99.99
2018-12-06T03:22:54.985Z,99.99
2018-12-06T03:23:55.226Z,99.99
2018-12-06T03:25:59.423Z,99.99
2018-12-06T03:26:59.666Z,99.99
2018-12-06T03:28:52.815Z,99.99
2018-12-06T03:29:53.056Z,99.99
2018-12-06T03:31:57.265Z,99.99
2018-12-06T03:32:57.517Z,99.99
2018-12-06T03:35:01.699Z,99.99
2018-12-06T03:36:01.939Z,99.99
2018-12-06T03:38:06.159Z,99.99
2018-12-06T03:39:06.410Z,99.99
2018-12-06T03:41:10.590Z,99.99
2018-12-06T03:42:10.828Z,99.99
2018-12-06T03:44:15.033Z,99.99
2018-12-06T03:45:15.278Z,99.99
2018-12-06T03:47:19.513Z,99.99
2018-12-06T03:48:19.738Z,99.99
2018-12-06T03:50:23.921Z,99.99
2018-12-06T03:51:24.163Z,99.99
2018-12-06T03:53:28.385Z,99.99
2018-12-06T03:54:28.622Z,99.99
2018-12-06T03:56:32.797Z,99.99
2018-12-06T03:57:33.042Z,99.99
2018-12-06T03:59:37.260Z,99.99
2018-12-06T04:00:37.505Z,99.99
2018-12-06T04:02:41.688Z,99.99
2018-12-06T04:03:41.931Z,99.99
2018-12-06T04:05:58.253Z,99.99
2018-12-06T04:06:58.493Z,99.99
2018-12-06T04:08:51.634Z,99.99
2018-12-06T04:09:51.870Z,99.99
2018-12-06T04:11:56.055Z,99.99
2018-12-06T04:12:56.294Z,99.99
2018-12-06T04:15:00.506Z,99.99
2018-12-06T04:16:00.742Z,99.99
2018-12-06T04:18:04.956Z,99.99
2018-12-06T04:19:05.198Z,99.99
2018-12-06T04:21:09.376Z,99.99
2018-12-06T04:22:09.617Z,99.99
2018-12-06T04:24:13.828Z,99.99
2018-12-06T04:25:14.066Z,99.99
2018-12-06T04:27:18.252Z,99.99
2018-12-06T04:28:18.493Z,99.99
2018-12-06T04:30:22.711Z,99.99
2018-12-06T04:31:22.954Z,99.99
2018-12-06T04:33:27.168Z,99.99
2018-12-06T04:34:27.409Z,99.99
2018-12-06T04:36:31.594Z,99.99
2018-12-06T04:37:31.828Z,99.99
2018-12-06T04:39:36.041Z,99.99
2018-12-06T04:40:36.284Z,99.99
2018-12-06T04:42:40.467Z,99.99
2018-12-06T04:43:40.707Z,99.99
2018-12-06T04:45:44.934Z,99.99
2018-12-06T04:46:45.168Z,99.99
2018-12-06T04:48:49.390Z,99.99
2018-12-06T04:49:49.611Z,99.99
2018-12-06T04:51:53.829Z,99.99
2018-12-06T04:52:54.072Z,99.99
2018-12-06T04:54:58.284Z,99.99
2018-12-06T04:55:58.526Z,99.99
2018-12-06T04:58:02.707Z,99.99
2018-12-06T04:59:02.947Z,99.99
2018-12-06T05:01:07.180Z,99.99
2018-12-06T05:02:07.412Z,99.99
2018-12-06T05:04:11.632Z,99.99
2018-12-06T05:05:11.866Z,99.99
2018-12-06T05:07:16.087Z,99.99
2018-12-06T05:08:16.323Z,99.99
2018-12-06T05:10:20.528Z,99.99
2018-12-06T05:11:20.771Z,99.96
2018-12-06T05:13:24.948Z,99.99
2018-12-06T05:14:25.187Z,99.99
2018-12-06T05:16:29.393Z,99.77
2018-12-06T05:17:29.632Z,99.99
2018-12-06T05:19:33.829Z,99.87
2018-12-06T05:20:34.078Z,99.99
2018-12-06T05:22:38.259Z,99.87
2018-12-06T05:23:38.494Z,99.99
2018-12-06T05:25:42.702Z,99.99
2018-12-06T05:26:42.949Z,99.99
2018-12-06T05:28:36.061Z,99.99
2018-12-06T05:29:36.313Z,99.99
2018-12-06T05:31:40.520Z,99.99
2018-12-06T05:32:40.760Z,99.99
2018-12-06T05:34:44.985Z,99.99
2018-12-06T05:35:45.228Z,99.99
2018-12-06T05:37:49.405Z,99.99
2018-12-06T05:38:49.650Z,99.99
2018-12-06T05:40:53.867Z,99.99
2018-12-06T05:41:54.107Z,99.99
2018-12-06T05:43:58.305Z,99.99
2018-12-06T05:44:58.545Z,99.99
2018-12-06T05:47:02.747Z,99.99
2018-12-06T05:48:02.984Z,99.99
2018-12-06T05:50:07.184Z,99.99
2018-12-06T05:51:07.418Z,99.91
2018-12-06T05:53:11.600Z,99.99
2018-12-06T05:54:11.838Z,99.99
2018-12-06T05:56:16.034Z,99.99
2018-12-06T05:57:16.280Z,99.99
2018-12-06T05:59:20.480Z,99.99
2018-12-06T06:00:20.725Z,99.99
2018-12-06T06:02:24.940Z,99.99
2018-12-06T06:03:25.184Z,99.99
2018-12-06T06:05:29.384Z,99.99
2018-12-06T06:06:29.631Z,99.99
2018-12-06T06:08:33.824Z,99.99
2018-12-06T06:09:34.065Z,99.63
2018-12-06T06:11:38.279Z,99.35
2018-12-06T06:12:38.543Z,99.26
2018-12-06T06:14:42.801Z,99.91
2018-12-06T06:15:43.040Z,99.99
2018-12-06T06:17:47.262Z,99.68
2018-12-06T06:18:47.500Z,99.54
2018-12-06T06:20:51.723Z,99.73
2018-12-06T06:21:51.989Z,99.35
2018-12-06T06:23:56.136Z,99.99
2018-12-06T06:24:56.375Z,99.99
2018-12-06T06:27:00.581Z,99.99
2018-12-06T06:28:00.822Z,99.99
2018-12-06T06:30:04.999Z,99.99
2018-12-06T06:31:05.234Z,99.54
2018-12-06T06:33:09.428Z,99.99
2018-12-06T06:34:09.667Z,99.99
2018-12-06T06:36:13.880Z,99.73
2018-12-06T06:37:14.122Z,99.91
2018-12-06T06:39:07.223Z,99.99
2018-12-06T06:40:07.473Z,99.99
2018-12-06T06:42:11.681Z,99.99
2018-12-06T06:43:11.918Z,99.99
2018-12-06T06:45:16.105Z,99.99
2018-12-06T06:46:16.344Z,99.99
2018-12-06T06:48:20.556Z,99.99
2018-12-06T06:49:20.817Z,99.99
2018-12-06T06:51:25.013Z,99.99
2018-12-06T06:52:25.305Z,99.99
2018-12-06T06:54:29.441Z,99.99
2018-12-06T06:55:29.679Z,99.99
2018-12-06T06:57:33.876Z,99.99
2018-12-06T06:58:34.120Z,99.99
2018-12-06T07:00:38.301Z,99.97
2018-12-06T07:01:38.547Z,99.99
2018-12-06T07:03:42.745Z,99.97
2018-12-06T07:04:42.985Z,99.99
2018-12-06T07:06:47.200Z,99.99
2018-12-06T07:07:47.478Z,99.99
2018-12-06T07:09:51.624Z,99.99
2018-12-06T07:10:51.862Z,99.99
2018-12-06T07:12:56.082Z,99.99
2018-12-06T07:13:56.322Z,99.77
2018-12-06T07:16:00.511Z,99.87
2018-12-06T07:17:00.754Z,99.87
2018-12-06T07:18:53.902Z,99.77
2018-12-06T07:19:54.139Z,99.77
2018-12-06T07:21:58.352Z,99.68
2018-12-06T07:22:58.599Z,99.40
2018-12-06T07:25:02.782Z,99.87
2018-12-06T07:26:03.023Z,99.99
2018-12-06T07:28:07.244Z,99.68
2018-12-06T07:29:07.487Z,99.30
2018-12-06T07:31:11.671Z,99.40
2018-12-06T07:32:11.915Z,99.30
2018-12-06T07:34:16.119Z,99.21
2018-12-06T07:35:16.365Z,99.49
2018-12-06T07:37:20.567Z,99.99
2018-12-06T07:38:20.810Z,99.11
2018-12-06T07:40:25.002Z,98.92
2018-12-06T07:41:25.243Z,99.40
2018-12-06T07:43:29.452Z,99.21
2018-12-06T07:44:29.691Z,99.87
2018-12-06T07:46:33.878Z,99.97
2018-12-06T07:47:34.119Z,99.99
2018-12-06T07:49:38.322Z,99.99
2018-12-06T07:50:38.576Z,99.99
2018-12-06T07:52:42.785Z,99.99
2018-12-06T07:53:43.057Z,99.99
2018-12-06T07:55:47.214Z,99.99
2018-12-06T07:56:47.449Z,99.99
2018-12-06T07:58:40.597Z,99.99
2018-12-06T07:59:40.832Z,99.97
2018-12-06T08:01:45.033Z,99.99
2018-12-06T08:02:45.274Z,99.68
2018-12-06T08:04:49.484Z,99.49
2018-12-06T08:05:49.724Z,99.68
2018-12-06T08:07:53.911Z,99.30
2018-12-06T08:08:54.151Z,98.92
2018-12-06T08:10:58.366Z,99.30
2018-12-06T08:11:58.609Z,98.54
2018-12-06T08:14:02.814Z,97.78
2018-12-06T08:15:03.051Z,98.16
2018-12-06T08:17:07.230Z,98.26
2018-12-06T08:18:07.471Z,98.35
2018-12-06T08:20:11.686Z,97.12
2018-12-06T08:21:11.931Z,97.41
2018-12-06T08:23:16.147Z,96.74
2018-12-06T08:24:16.388Z,96.93
2018-12-06T08:26:20.568Z,96.55
2018-12-06T08:27:20.811Z,95.98
2018-12-06T08:29:13.956Z,95.74
2018-12-06T08:30:14.204Z,95.60
2018-12-06T08:32:18.387Z,95.89
2018-12-06T08:33:18.627Z,95.89
2018-12-06T08:35:22.839Z,96.03
2018-12-06T08:36:23.077Z,96.17
2018-12-06T08:38:27.298Z,95.93
2018-12-06T08:39:27.537Z,96.17
2018-12-06T08:41:31.725Z,95.93
2018-12-06T08:42:31.967Z,95.74
2018-12-06T08:44:36.179Z,95.65
2018-12-06T08:45:36.417Z,95.79
2018-12-06T08:47:40.604Z,95.79
2018-12-06T08:48:40.848Z,95.70
2018-12-06T08:50:45.076Z,95.98
2018-12-06T08:51:45.313Z,95.98
2018-12-06T08:53:49.526Z,96.08
2018-12-06T08:54:49.769Z,95.98
2018-12-06T08:56:53.943Z,96.36
2018-12-06T08:57:54.186Z,95.70
2018-12-06T08:59:58.397Z,95.79
2018-12-06T09:00:58.638Z,96.08
2018-12-06T09:03:02.825Z,96.17
2018-12-06T09:04:03.125Z,96.17
2018-12-06T09:06:07.281Z,95.79
2018-12-06T09:07:07.516Z,96.08
2018-12-06T09:09:00.652Z,96.26
2018-12-06T09:10:00.894Z,95.70
2018-12-06T09:12:05.076Z,96.45
2018-12-06T09:13:05.319Z,96.17
2018-12-06T09:15:09.528Z,95.89
2018-12-06T09:16:09.791Z,96.08
2018-12-06T09:18:13.953Z,95.89
2018-12-06T09:19:14.783Z,96.17
2018-12-06T09:21:18.410Z,95.89
2018-12-06T09:22:18.655Z,95.98
2018-12-06T09:24:22.866Z,95.98
2018-12-06T09:25:23.121Z,96.08
2018-12-06T09:27:27.296Z,96.17
2018-12-06T09:28:27.539Z,95.98
2018-12-06T09:30:31.748Z,96.26
2018-12-06T09:31:31.982Z,96.64
2018-12-06T09:33:36.168Z,96.64
2018-12-06T09:34:36.412Z,96.55
2018-12-06T09:36:40.627Z,96.55
2018-12-06T09:37:40.867Z,96.74
2018-12-06T09:39:45.079Z,96.64
2018-12-06T09:40:45.318Z,96.83
2018-12-06T09:42:49.505Z,97.07
2018-12-06T09:43:49.748Z,96.79
2018-12-06T09:45:53.959Z,97.36
2018-12-06T09:46:54.196Z,97.36
2018-12-06T09:48:47.307Z,98.02
2018-12-06T09:49:47.546Z,98.79
2018-12-06T09:51:51.761Z,98.31
2018-12-06T09:52:52.003Z,98.21
2018-12-06T09:54:56.216Z,98.88
2018-12-06T09:55:56.456Z,98.79
2018-12-06T09:58:00.633Z,98.79
2018-12-06T09:59:00.874Z,98.59
2018-12-06T10:01:05.100Z,98.02
2018-12-06T10:02:05.342Z,97.83
2018-12-06T10:04:09.529Z,99.26
2018-12-06T10:05:09.770Z,99.35
2018-12-06T10:07:13.974Z,98.21
2018-12-06T10:08:14.217Z,98.79
2018-12-06T10:10:18.431Z,98.79
2018-12-06T10:11:18.671Z,98.97
2018-12-06T10:13:22.855Z,98.59
2018-12-06T10:14:23.098Z,98.88
2018-12-06T10:16:27.314Z,98.69
2018-12-06T10:17:27.592Z,98.69
2018-12-06T10:19:20.666Z,99.26
2018-12-06T10:20:20.908Z,98.40
2018-12-06T10:22:25.123Z,99.83
2018-12-06T10:23:25.359Z,99.99
2018-12-06T10:25:29.657Z,99.99
2018-12-06T10:26:29.812Z,99.99
2018-12-06T10:28:34.090Z,99.99
2018-12-06T10:29:34.239Z,99.99
2018-12-06T10:31:38.450Z,99.99
2018-12-06T10:32:38.691Z,99.99
2018-12-06T10:34:42.882Z,99.99
2018-12-06T10:35:43.130Z,99.99
2018-12-06T10:37:47.341Z,99.99
2018-12-06T10:38:47.579Z,99.99
2018-12-06T10:40:51.794Z,99.99
2018-12-06T10:41:52.035Z,99.99
2018-12-06T10:43:56.215Z,99.99
2018-12-06T10:44:56.452Z,99.99
2018-12-06T10:47:00.662Z,99.99
2018-12-06T10:48:00.900Z,99.99
2018-12-06T10:50:05.122Z,99.99
2018-12-06T10:51:05.354Z,99.99
2018-12-06T10:53:09.545Z,99.99
2018-12-06T10:54:09.786Z,99.99
2018-12-06T10:56:13.988Z,99.99
2018-12-06T10:57:14.224Z,99.99
2018-12-06T10:59:07.342Z,99.99
2018-12-06T11:00:07.572Z,99.99
2018-12-06T11:02:11.782Z,99.99
2018-12-06T11:03:12.017Z,99.99
2018-12-06T11:05:16.208Z,99.99
2018-12-06T11:06:16.444Z,99.99
2018-12-06T11:08:20.646Z,99.99
2018-12-06T11:09:20.881Z,99.99
2018-12-06T11:11:26.476Z,99.99
2018-12-06T11:12:25.330Z,99.99
2018-12-06T11:14:29.511Z,99.99
2018-12-06T11:15:29.746Z,99.99
2018-12-06T11:17:35.498Z,99.99
2018-12-06T11:18:34.204Z,99.99
2018-12-06T11:20:38.387Z,99.99
2018-12-06T11:21:38.625Z,99.99
2018-12-06T11:23:42.838Z,99.99
2018-12-06T11:24:43.074Z,99.99
2018-12-06T11:26:47.286Z,99.99
2018-12-06T11:27:47.527Z,99.99
2018-12-06T11:29:51.715Z,99.99
2018-12-06T11:30:51.955Z,99.99
2018-12-06T11:32:56.163Z,99.99
2018-12-06T11:33:56.398Z,99.99
2018-12-06T11:36:00.590Z,99.99
2018-12-06T11:37:00.824Z,99.99
2018-12-06T11:38:53.978Z,99.99
2018-12-06T11:39:54.214Z,99.99
2018-12-06T11:41:58.422Z,99.99
2018-12-06T11:42:58.658Z,99.99
2018-12-06T11:45:02.854Z,99.99
2018-12-06T11:46:03.095Z,99.99
2018-12-06T11:48:07.308Z,99.99
2018-12-06T11:49:07.551Z,99.99
2018-12-06T11:51:11.729Z,99.99
2018-12-06T11:52:11.966Z,99.99
2018-12-06T11:54:16.183Z,99.99
2018-12-06T11:55:16.424Z,99.99
2018-12-06T11:57:20.798Z,99.99
2018-12-06T11:58:21.103Z,99.99
2018-12-06T12:00:25.301Z,99.99
2018-12-06T12:01:25.539Z,99.99
2018-12-06T12:03:29.865Z,99.99
2018-12-06T12:04:30.108Z,99.99
2018-12-06T12:06:34.317Z,99.99
2018-12-06T12:07:34.553Z,99.99
2018-12-06T12:09:38.834Z,99.99
2018-12-06T12:10:39.145Z,99.99
2018-12-06T12:12:43.370Z,99.99
2018-12-06T12:13:43.736Z,99.99
2018-12-06T12:15:47.965Z,99.99
2018-12-06T12:16:48.278Z,99.99
2018-12-06T12:18:41.501Z,99.99
2018-12-06T12:19:41.804Z,99.99
2018-12-06T12:21:46.012Z,99.99
2018-12-06T12:22:46.304Z,99.99
2018-12-06T12:24:50.488Z,99.99
2018-12-06T12:25:50.787Z,99.99
2018-12-06T12:27:55.084Z,99.99
2018-12-06T12:28:55.368Z,99.99
2018-12-06T12:30:59.500Z,99.99
2018-12-06T12:31:59.815Z,99.99
2018-12-06T12:34:05.126Z,99.99
2018-12-06T12:35:05.394Z,99.99
2018-12-06T12:37:09.614Z,99.99
2018-12-06T12:38:09.855Z,99.99
2018-12-06T12:40:14.081Z,99.99
2018-12-06T12:41:14.314Z,99.99
2018-12-06T12:43:18.563Z,99.99
2018-12-06T12:44:18.795Z,99.99
2018-12-06T12:46:22.974Z,99.99
2018-12-06T12:47:23.229Z,99.99
2018-12-06T12:49:16.370Z,99.99
2018-12-06T12:50:16.610Z,99.99
2018-12-06T12:52:20.827Z,99.99
2018-12-06T12:53:21.069Z,99.99
2018-12-06T12:55:25.266Z,99.99
2018-12-06T12:56:25.495Z,99.99
2018-12-06T12:58:29.710Z,99.99
2018-12-06T12:59:29.965Z,99.99
2018-12-06T13:01:34.148Z,99.99
2018-12-06T13:02:34.384Z,99.99
2018-12-06T13:04:38.587Z,99.99
2018-12-06T13:05:38.827Z,99.99
2018-12-06T13:07:43.038Z,99.99
2018-12-06T13:08:43.274Z,99.99
2018-12-06T13:10:47.455Z,99.99
2018-12-06T13:11:47.695Z,99.99
2018-12-06T13:13:51.904Z,99.99
2018-12-06T13:14:52.143Z,99.99
2018-12-06T13:16:56.327Z,99.99
2018-12-06T13:17:56.570Z,99.99
2018-12-06T13:20:00.779Z,99.99
2018-12-06T13:21:01.019Z,99.99
2018-12-06T13:23:05.235Z,99.99
2018-12-06T13:24:05.470Z,99.99
2018-12-06T13:26:09.646Z,99.99
2018-12-06T13:27:09.979Z,99.99
2018-12-06T13:29:03.026Z,99.99
2018-12-06T13:30:03.261Z,99.99
2018-12-06T13:32:07.444Z,99.99
2018-12-06T13:33:07.699Z,99.99
2018-12-06T13:35:11.896Z,99.99
2018-12-06T13:36:12.135Z,99.99
2018-12-06T13:38:16.339Z,99.99
2018-12-06T13:39:16.582Z,99.99
2018-12-06T13:41:20.763Z,99.99
2018-12-06T13:42:23.758Z,99.99
2018-12-06T13:44:25.220Z,99.99
2018-12-06T13:45:25.462Z,99.99
2018-12-06T13:47:29.647Z,99.99
2018-12-06T13:48:29.884Z,99.99
2018-12-06T13:50:34.100Z,99.99
2018-12-06T13:51:34.333Z,99.99
2018-12-06T13:53:38.555Z,99.99
2018-12-06T13:54:38.793Z,99.99
2018-12-06T13:56:42.976Z,99.99
2018-12-06T13:57:43.212Z,99.99
2018-12-06T13:59:47.427Z,99.99
2018-12-06T14:00:47.812Z,99.99
2018-12-06T14:02:51.857Z,99.99
2018-12-06T14:03:52.092Z,99.99
2018-12-06T14:05:56.299Z,99.99
2018-12-06T14:06:56.538Z,99.99
2018-12-06T14:08:49.679Z,99.99
2018-12-06T14:09:49.917Z,99.99
2018-12-06T14:11:54.102Z,99.99
2018-12-06T14:12:54.356Z,99.99
2018-12-06T14:14:58.563Z,99.99
2018-12-06T14:15:58.799Z,99.99
2018-12-06T14:18:02.977Z,99.99
2018-12-06T14:19:03.214Z,99.99
2018-12-06T14:21:08.640Z,99.99
2018-12-06T14:22:07.664Z,99.99
2018-12-06T14:24:11.877Z,99.99
2018-12-06T14:25:12.119Z,99.99
2018-12-06T14:27:16.314Z,99.99
2018-12-06T14:28:16.550Z,99.99
2018-12-06T14:30:20.768Z,99.99
2018-12-06T14:31:21.006Z,99.99
2018-12-06T14:33:25.197Z,99.99
2018-12-06T14:34:25.437Z,99.99
2018-12-06T14:36:29.649Z,99.99
2018-12-06T14:37:29.890Z,99.99
2018-12-06T14:39:23.040Z,99.99
2018-12-06T14:40:23.283Z,99.99
2018-12-06T14:42:27.478Z,99.99
2018-12-06T14:43:27.721Z,99.99
2018-12-06T14:45:31.937Z,99.99
2018-12-06T14:46:32.177Z,99.99
2018-12-06T14:48:36.371Z,99.99
2018-12-06T14:49:36.610Z,99.99
2018-12-06T14:51:40.832Z,99.99
2018-12-06T14:52:41.077Z,99.99
2018-12-06T14:54:45.315Z,99.99
2018-12-06T14:55:45.541Z,99.99
2018-12-06T14:57:49.731Z,99.99
2018-12-06T14:58:49.974Z,99.99
2018-12-06T15:00:54.188Z,99.99
2018-12-06T15:01:54.427Z,99.99
2018-12-06T15:03:58.618Z,99.99
2018-12-06T15:04:58.856Z,99.99
2018-12-06T15:07:03.068Z,99.99
2018-12-06T15:08:03.314Z,99.99
2018-12-06T15:10:07.605Z,99.99
2018-12-06T15:11:07.779Z,99.99
2018-12-06T15:13:11.951Z,99.99
2018-12-06T15:14:12.187Z,99.99
2018-12-06T15:16:16.415Z,99.99
2018-12-06T15:17:16.651Z,99.99
2018-12-06T15:19:09.771Z,99.99
2018-12-06T15:20:10.018Z,99.99
2018-12-06T15:22:14.236Z,99.99
2018-12-06T15:23:14.482Z,99.99
2018-12-06T15:25:18.693Z,99.99
2018-12-06T15:26:18.931Z,99.99
2018-12-06T15:28:23.148Z,99.99
2018-12-06T15:29:23.388Z,99.99
2018-12-06T15:31:27.616Z,99.99
2018-12-06T15:32:27.921Z,99.99
2018-12-06T15:34:32.527Z,99.99
2018-12-06T15:35:32.782Z,99.99
2018-12-06T15:37:37.479Z,99.99
2018-12-06T15:38:37.722Z,99.99
2018-12-06T15:40:41.958Z,99.99
2018-12-06T15:41:42.274Z,99.99
2018-12-06T15:43:46.878Z,99.99
2018-12-06T15:44:47.117Z,99.99
2018-12-06T15:46:51.816Z,99.99
2018-12-06T15:47:52.059Z,99.99
2018-12-06T15:49:56.793Z,99.99
2018-12-06T15:50:57.032Z,99.99
2018-12-06T15:53:01.229Z,99.99
2018-12-06T15:54:01.482Z,99.99
2018-12-06T15:56:07.186Z,99.99
2018-12-06T15:57:07.428Z,99.99
2018-12-06T15:59:01.038Z,99.99
2018-12-06T16:00:01.276Z,99.99
2018-12-06T16:02:05.484Z,99.99
2018-12-06T16:03:05.743Z,99.99
2018-12-06T16:05:09.980Z,99.99
2018-12-06T16:06:10.236Z,99.99
2018-12-06T16:08:14.875Z,99.99
2018-12-06T16:09:15.124Z,99.99
2018-12-06T16:11:19.824Z,99.99
2018-12-06T16:12:20.060Z,99.99
2018-12-06T16:14:24.725Z,99.99
2018-12-06T16:15:24.960Z,99.99
2018-12-06T16:17:29.668Z,99.99
2018-12-06T16:18:29.907Z,99.99
2018-12-06T16:20:34.148Z,99.99
2018-12-06T16:21:34.387Z,99.99
2018-12-06T16:23:38.599Z,99.99
2018-12-06T16:24:38.859Z,99.99
2018-12-06T16:26:43.064Z,99.99
2018-12-06T16:27:43.303Z,99.99
2018-12-06T16:29:51.469Z,99.99
2018-12-06T16:30:48.216Z,99.99
2018-12-06T16:32:52.434Z,99.99
2018-12-06T16:33:52.666Z,99.99
2018-12-06T16:35:56.876Z,99.99
2018-12-06T16:36:57.112Z,99.99
2018-12-06T16:38:50.727Z,99.99
2018-12-06T16:39:50.970Z,99.99
2018-12-06T16:41:55.245Z,99.99
2018-12-06T16:42:55.420Z,99.99
2018-12-06T16:45:00.628Z,99.99
2018-12-06T16:46:00.882Z,99.99
2018-12-06T16:48:05.572Z,99.99
2018-12-06T16:49:10.111Z,99.99
2018-12-06T16:51:10.531Z,99.99
2018-12-06T16:52:10.772Z,99.99
2018-12-06T16:54:14.965Z,99.99
2018-12-06T16:55:15.203Z,99.99
2018-12-06T16:57:19.908Z,99.99
2018-12-06T16:58:20.153Z,99.99
2018-12-06T17:00:24.385Z,99.99
2018-12-06T17:01:24.636Z,99.99
2018-12-06T17:03:28.821Z,99.99
2018-12-06T17:04:29.059Z,99.99
2018-12-06T17:06:33.326Z,99.99
2018-12-06T17:07:33.516Z,99.99
2018-12-06T17:09:37.713Z,99.99
2018-12-06T17:10:37.949Z,99.99
2018-12-06T17:12:42.156Z,99.99
2018-12-06T17:13:42.393Z,99.99
2018-12-06T17:15:47.103Z,99.99
2018-12-06T17:16:47.343Z,99.99
2018-12-06T17:18:40.465Z,99.99
2018-12-06T17:19:40.731Z,99.99
2018-12-06T17:21:44.923Z,99.99
2018-12-06T17:22:45.161Z,99.99
2018-12-06T17:24:49.355Z,99.99
2018-12-06T17:25:49.627Z,99.99
2018-12-06T17:27:54.285Z,99.99
2018-12-06T17:28:54.541Z,99.99
2018-12-06T17:30:58.797Z,99.99
2018-12-06T17:31:59.015Z,99.99
2018-12-06T17:34:03.204Z,99.99
2018-12-06T17:35:03.569Z,99.99
2018-12-06T17:37:07.846Z,99.99
2018-12-06T17:38:08.064Z,99.99
2018-12-06T17:40:12.763Z,99.99
2018-12-06T17:41:13.105Z,99.99
2018-12-06T17:43:17.259Z,99.99
2018-12-06T17:44:17.621Z,99.99
2018-12-06T17:46:21.731Z,99.99
2018-12-06T17:47:21.966Z,99.99
2018-12-06T17:49:15.146Z,99.99
2018-12-06T17:50:15.342Z,99.99
2018-12-06T17:52:21.035Z,99.99
2018-12-06T17:53:21.331Z,99.99
2018-12-06T17:55:25.945Z,99.99
2018-12-06T17:56:26.181Z,99.99
2018-12-06T17:58:30.404Z,99.99
2018-12-06T17:59:30.634Z,99.99
2018-12-06T18:01:34.853Z,99.99
2018-12-06T18:02:35.116Z,99.99
2018-12-06T18:04:39.296Z,99.99
2018-12-06T18:05:39.543Z,99.99
2018-12-06T18:07:44.247Z,99.99
2018-12-06T18:08:44.489Z,99.99
2018-12-06T18:10:48.683Z,99.99
2018-12-06T18:11:48.963Z,99.99
2018-12-06T18:13:54.702Z,99.99
2018-12-06T18:14:55.382Z,99.99
2018-12-06T18:16:59.647Z,99.99
2018-12-06T18:17:59.893Z,99.99
2018-12-06T18:20:04.768Z,99.99
2018-12-06T18:21:04.316Z,99.99
2018-12-06T18:23:09.031Z,99.99
2018-12-06T18:24:09.282Z,99.99
2018-12-06T18:26:13.499Z,99.99
2018-12-06T18:27:13.739Z,99.99
2018-12-06T18:29:06.865Z,99.99
2018-12-06T18:30:07.104Z,99.99
2018-12-06T18:32:11.319Z,99.99
2018-12-06T18:33:11.561Z,99.99
2018-12-06T18:35:15.763Z,99.99
2018-12-06T18:36:16.016Z,99.99
2018-12-06T18:38:20.252Z,99.99
2018-12-06T18:39:20.488Z,99.99
2018-12-06T18:41:24.706Z,99.99
2018-12-06T18:42:24.980Z,99.99
2018-12-06T18:44:29.153Z,99.99
2018-12-06T18:45:29.393Z,99.99
2018-12-06T18:47:33.595Z,99.99
2018-12-06T18:48:34.020Z,99.99
2018-12-06T18:50:38.570Z,99.99
2018-12-06T18:51:38.856Z,99.99
2018-12-06T18:53:43.226Z,99.99
2018-12-06T18:54:43.601Z,99.99
2018-12-06T18:56:49.243Z,99.99
2018-12-06T18:57:49.018Z,99.99
2018-12-06T18:59:53.687Z,99.99
2018-12-06T19:00:54.066Z,99.99
2018-12-06T19:02:58.146Z,99.99
2018-12-06T19:03:58.607Z,99.99
2018-12-06T19:06:02.572Z,99.99
2018-12-06T19:07:03.006Z,99.99
2018-12-06T19:08:56.082Z,99.99
2018-12-06T19:09:56.483Z,99.99
2018-12-06T19:12:01.084Z,99.99
2018-12-06T19:13:01.383Z,99.99
2018-12-06T19:15:05.591Z,99.99
2018-12-06T19:16:05.867Z,99.99
2018-12-06T19:18:10.533Z,99.99
2018-12-06T19:19:10.768Z,99.99
2018-12-06T19:21:14.969Z,99.99
2018-12-06T19:22:15.213Z,99.99
2018-12-06T19:24:19.922Z,99.99
2018-12-06T19:25:20.166Z,99.99
2018-12-06T19:27:24.392Z,99.99
2018-12-06T19:28:24.629Z,99.99
2018-12-06T19:30:28.819Z,99.99
2018-12-06T19:31:29.063Z,99.99
2018-12-06T19:33:33.273Z,99.99
2018-12-06T19:34:33.514Z,99.99
2018-12-06T19:36:38.217Z,99.99
2018-12-06T19:37:38.584Z,99.99
2018-12-06T19:39:42.665Z,99.99
2018-12-06T19:40:42.908Z,99.99
2018-12-06T19:42:47.114Z,99.99
2018-12-06T19:43:47.356Z,99.99
2018-12-06T19:45:51.537Z,99.99
2018-12-06T19:46:51.780Z,99.99
2018-12-06T19:48:44.932Z,99.99
2018-12-06T19:49:45.176Z,99.99
2018-12-06T19:51:49.431Z,99.99
2018-12-06T19:52:49.694Z,99.99
2018-12-06T19:54:53.864Z,99.99
2018-12-06T19:55:54.109Z,99.99
2018-12-06T19:57:58.335Z,99.99